This is the latest recevied weather packets stored in our database for station/object TA8CW-13. If no packets are shown the sender has not sent any weather packets the latest 10 day(s).
| Time | Temp. | Humidity | Pressure | Rain* | Wind** | Luminosity | Snow |
|---|---|---|---|---|---|---|---|
| 1778349842 | 18.89° C | 45% | 1016.7 hPa | 0 mm | - | 0 W/m² | - |
| 1778346565 | 20° C | 40% | 1016.1 hPa | 0 mm | - | 5 W/m² | - |
| 1778342800 | 20.56° C | 33% | 1015.6 hPa | 0 mm | - | 74 W/m² | - |
| 1778339320 | 21.67° C | 36% | 1015.1 hPa | 0 mm | - | 215 W/m² | - |
| 1778335494 | 22.78° C | 32% | 1015 hPa | 0 mm | - | 427 W/m² | - |
| 1778330315 | 22.78° C | 32% | 1015.8 hPa | 0 mm | - | 630 W/m² | - |
| 1778326480 | 22.78° C | 32% | 1016.5 hPa | 0 mm | - | 741 W/m² | - |
| 1778323217 | 22.78° C | 31% | 1016.8 hPa | 0 mm | - | 964 W/m² | - |
| 1778319890 | 21.67° C | 35% | 1017.7 hPa | 0 mm | - | 903 W/m² | - |
| 1778314410 | 21.11° C | 37% | 1017.7 hPa | 0 mm | - | 874 W/m² | - |
| 1778307434 | 18.89° C | 50% | 1018.4 hPa | 0 mm | - | 549 W/m² | - |
| 1778298958 | 11.67° C | 79% | 1018.9 hPa | 0 mm | - | 10 W/m² | - |
| 1778285443 | 10.56° C | 76% | 1019.1 hPa | 0 mm | - | 0 W/m² | - |
| 1778281938 | 11.11° C | 74% | 1019.2 hPa | 0 mm | - | 0 W/m² | - |
| 1778278479 | 12.22° C | 73% | 1019 hPa | 0 mm | - | 0 W/m² | - |
| 1778275003 | 13.33° C | 66% | 1019.1 hPa | 0 mm | - | 0 W/m² | - |
| 1778271127 | 15.56° C | 57% | 1018.6 hPa | 0 mm | - | 0 W/m² | - |
| 1778266759 | 16.67° C | 51% | 1018.3 hPa | 0 mm | - | 0 W/m² | - |
| 1778262600 | 17.22° C | 49% | 1017.2 hPa | 0 mm | - | 5 W/m² | - |
| 1778257392 | 19.44° C | 39% | 1016.3 hPa | 0 mm | - | 92 W/m² | - |
| 1778252410 | 21.11° C | 31% | 1015.5 hPa | 0 mm | - | 406 W/m² | - |
| 1778245233 | 21.67° C | 29% | 1015.8 hPa | 0 mm | - | 656 W/m² | - |
| 1778240763 | 22.22° C | 26% | 1017.1 hPa | 0 mm | - | 804 W/m² | - |
| 1778235108 | 21.11° C | 31% | 1018.1 hPa | 0 mm | - | 862 W/m² | - |
| 1778230152 | 20° C | 37% | 1019.2 hPa | 0 mm | - | 806 W/m² | - |
* Rain latest hour (hover to see other rain measurements)
** Current wind speed in m/s (hover to see current wind gust speed)